Time;durP1;ratioP1;P1;durP2;ratioP2;P2;SDS_P1;SDS_P2;PMS_P1;PMS_P2;Temp;Humidity;BMP_temperature;BMP_pressure;BME280_temperature;BME280_humidity;BME280_pressure;Samples;Min_cycle;Max_cycle;Signal;HPM_P1;HPM_P2
2023/05/08 00:05:16;;;;;;;2.28;0.90;;;;;;;;;;21007562;28;20052;-68
2023/05/08 00:15:17;;;;;;;2.50;0.95;;;;;;;;;;21006731;28;20040;-68
2023/05/08 00:25:19;;;;;;;1.98;0.95;;;;;;;;;;21004639;28;20144;-69
2023/05/08 00:35:20;;;;;;;2.20;1.20;;;;;;;;;;21004815;28;20098;-69
2023/05/08 00:45:21;;;;;;;4.30;1.23;;;;;;;;;;21004082;28;20051;-69
2023/05/08 00:55:22;;;;;;;2.90;1.10;;;;;;;;;;21002097;28;20087;-68
2023/05/08 01:05:23;;;;;;;2.40;1.10;;;;;;;;;;21002491;28;20143;-68
2023/05/08 01:15:31;;;;;;;4.10;1.23;;;;;;;;;;21001672;28;20048;-67
2023/05/08 01:25:39;;;;;;;1.92;1.08;;;;;;;;;;21001436;28;20398;-68
2023/05/08 01:35:40;;;;;;;2.30;1.20;;;;;;;;;;20998790;28;20059;-68
2023/05/08 01:45:44;;;;;;;2.20;1.17;;;;;;;;;;20998374;28;20285;-68
2023/05/08 01:55:46;;;;;;;2.63;1.52;;;;;;;;;;20998624;28;20044;-68
2023/05/08 02:05:48;;;;;;;3.28;1.45;;;;;;;;;;20998005;28;20044;-68
2023/05/08 02:15:50;;;;;;;3.78;1.40;;;;;;;;;;20997581;28;20059;-69
2023/05/08 02:25:52;;;;;;;3.47;1.75;;;;;;;;;;20997891;28;20121;-68
2023/05/08 02:35:55;;;;;;;2.75;1.23;;;;;;;;;;20997007;28;20120;-68
2023/05/08 02:46:14;;;;;;;4.50;1.55;;;;;;;;;;20995189;28;20045;-68
2023/05/08 02:56:22;;;;;;;2.83;1.25;;;;;;;;;;20996087;28;20051;-68
2023/05/08 03:06:24;;;;;;;2.35;1.45;;;;;;;;;;20996847;28;20158;-67
2023/05/08 03:16:27;;;;;;;4.25;1.50;;;;;;;;;;20996158;28;20044;-68
2023/05/08 03:26:28;;;;;;;4.43;1.30;;;;;;;;;;21010867;28;20048;-68
2023/05/08 03:36:30;;;;;;;2.20;1.40;;;;;;;;;;21008427;28;20048;-69
2023/05/08 03:46:32;;;;;;;2.67;1.50;;;;;;;;;;21007547;28;20055;-68
2023/05/08 03:56:34;;;;;;;3.47;1.33;;;;;;;;;;21008230;28;20054;-68
2023/05/08 04:06:56;;;;;;;4.93;1.77;;;;;;;;;;21007435;28;22015;-68
2023/05/08 04:17:00;;;;;;;4.03;1.80;;;;;;;;;;21006859;28;20482;-68
2023/05/08 04:27:02;;;;;;;3.65;1.55;;;;;;;;;;21004752;28;20565;-69
2023/05/08 04:37:03;;;;;;;4.35;1.88;;;;;;;;;;21005142;28;20048;-68
2023/05/08 04:47:04;;;;;;;4.38;1.58;;;;;;;;;;21004202;28;20044;-68
2023/05/08 04:57:06;;;;;;;5.05;1.63;;;;;;;;;;21003297;28;20053;-68
2023/05/08 05:07:08;;;;;;;4.05;1.90;;;;;;;;;;21002165;28;20048;-68
2023/05/08 05:17:09;;;;;;;5.18;1.55;;;;;;;;;;21001545;28;20037;-68
2023/05/08 05:27:10;;;;;;;3.65;1.50;;;;;;;;;;20999716;28;20056;-67
2023/05/08 05:37:11;;;;;;;5.50;2.03;;;;;;;;;;21000376;28;20045;-68
2023/05/08 05:47:12;;;;;;;3.15;1.50;;;;;;;;;;20998857;28;20045;-67
2023/05/08 05:57:14;;;;;;;4.55;2.17;;;;;;;;;;20998929;28;20056;-68
2023/05/08 06:07:15;;;;;;;6.03;1.80;;;;;;;;;;20998192;28;20048;-68
2023/05/08 06:17:16;;;;;;;7.15;2.15;;;;;;;;;;20996807;28;20049;-68
2023/05/08 06:27:17;;;;;;;5.15;2.33;;;;;;;;;;20995848;28;20056;-67
2023/05/08 06:37:18;;;;;;;11.23;2.40;;;;;;;;;;20997154;28;20080;-69
2023/05/08 06:47:20;;;;;;;7.68;1.90;;;;;;;;;;20996115;28;20493;-69
2023/05/08 06:57:23;;;;;;;12.35;2.92;;;;;;;;;;21009894;28;20047;-70
2023/05/08 07:07:24;;;;;;;31.67;13.35;;;;;;;;;;21010354;28;20127;-70
2023/05/08 07:17:25;;;;;;;7.43;2.50;;;;;;;;;;21010949;28;20048;-70
2023/05/08 07:27:27;;;;;;;9.30;2.30;;;;;;;;;;21008846;28;20139;-71
2023/05/08 07:37:28;;;;;;;4.18;1.40;;;;;;;;;;21009620;28;20093;-71
2023/05/08 07:47:29;;;;;;;6.53;2.13;;;;;;;;;;21007117;28;20087;-69
2023/05/08 07:57:35;;;;;;;8.95;2.10;;;;;;;;;;21006637;28;20145;-71
2023/05/08 08:07:37;;;;;;;5.97;1.73;;;;;;;;;;21006555;28;20398;-71
2023/05/08 08:17:38;;;;;;;3.88;1.60;;;;;;;;;;21005311;28;20045;-72
2023/05/08 08:27:39;;;;;;;4.32;1.30;;;;;;;;;;21004606;28;20048;-71
2023/05/08 08:37:40;;;;;;;15.32;2.38;;;;;;;;;;21004930;28;20123;-70
2023/05/08 08:47:43;;;;;;;7.85;1.95;;;;;;;;;;21004412;28;20128;-72
2023/05/08 08:57:49;;;;;;;6.63;1.90;;;;;;;;;;21003506;28;20054;-71
2023/05/08 09:07:53;;;;;;;6.18;1.45;;;;;;;;;;21002254;28;20485;-71
2023/05/08 09:17:54;;;;;;;9.02;1.80;;;;;;;;;;21000521;28;20097;-71
2023/05/08 09:28:14;;;;;;;5.40;1.38;;;;;;;;;;20999486;28;20052;-71
2023/05/08 09:38:34;;;;;;;6.03;1.45;;;;;;;;;;21000687;28;20097;-72
2023/05/08 09:48:38;;;;;;;5.25;1.58;;;;;;;;;;20999589;28;20501;-72
2023/05/08 09:58:40;;;;;;;4.80;1.42;;;;;;;;;;20998973;28;20055;-71
2023/05/08 10:08:41;;;;;;;4.28;1.42;;;;;;;;;;20998282;28;20075;-72
2023/05/08 10:18:46;;;;;;;8.20;1.92;;;;;;;;;;20998368;28;20455;-71
2023/05/08 10:28:58;;;;;;;8.07;1.77;;;;;;;;;;20995539;28;20059;-72
2023/05/08 10:38:59;;;;;;;9.90;1.95;;;;;;;;;;20996644;28;20402;-72
2023/05/08 10:49:06;;;;;;;6.82;1.45;;;;;;;;;;20996183;28;20051;-71
2023/05/08 10:59:17;;;;;;;3.55;1.30;;;;;;;;;;20995796;28;20098;-71
2023/05/08 11:09:22;;;;;;;2.58;1.08;;;;;;;;;;20995500;28;20048;-71
2023/05/08 11:19:23;;;;;;;5.63;1.63;;;;;;;;;;20995076;28;20086;-71
2023/05/08 11:29:25;;;;;;;4.55;1.30;;;;;;;;;;20993270;28;20413;-72
2023/05/08 11:39:26;;;;;;;4.35;1.45;;;;;;;;;;20999696;28;20044;-71
2023/05/08 11:49:28;;;;;;;3.90;1.25;;;;;;;;;;21008914;28;20044;-70
2023/05/08 11:59:34;;;;;;;4.35;1.08;;;;;;;;;;21008402;28;20129;-71
2023/05/08 12:09:37;;;;;;;4.50;1.30;;;;;;;;;;21007557;28;20044;-71
2023/05/08 12:19:38;;;;;;;3.60;0.82;;;;;;;;;;21005426;28;20084;-71
2023/05/08 12:29:44;;;;;;;6.65;1.10;;;;;;;;;;21004009;28;20045;-72
2023/05/08 12:39:45;;;;;;;4.63;1.25;;;;;;;;;;21004798;28;20124;-71
2023/05/08 12:49:51;;;;;;;3.22;1.00;;;;;;;;;;21003576;28;20049;-71
2023/05/08 13:00:02;;;;;;;1.83;1.00;;;;;;;;;;21003829;28;20481;-71
2023/05/08 13:10:03;;;;;;;4.05;1.20;;;;;;;;;;21004323;28;20040;-71
2023/05/08 13:20:05;;;;;;;2.20;1.00;;;;;;;;;;21001854;28;20082;-71
2023/05/08 13:30:06;;;;;;;2.40;0.80;;;;;;;;;;20999520;28;20123;-72
2023/05/08 13:40:08;;;;;;;4.10;0.80;;;;;;;;;;21000414;28;20386;-72
2023/05/08 13:50:10;;;;;;;1.60;0.73;;;;;;;;;;20999123;28;20448;-71
2023/05/08 14:00:11;;;;;;;1.83;0.70;;;;;;;;;;20998155;28;20052;-70
2023/05/08 14:10:12;;;;;;;2.58;0.82;;;;;;;;;;20997351;28;20040;-71
2023/05/08 14:20:13;;;;;;;5.75;3.20;;;;;;;;;;20995434;28;20048;-70
2023/05/08 14:30:15;;;;;;;4.18;0.88;;;;;;;;;;20996766;28;20051;-71
2023/05/08 14:40:16;;;;;;;1.98;0.60;;;;;;;;;;20996575;28;20375;-70
2023/05/08 14:50:17;;;;;;;3.92;1.05;;;;;;;;;;20996141;28;20120;-71
2023/05/08 15:00:20;;;;;;;2.55;0.90;;;;;;;;;;20994628;28;20049;-71
2023/05/08 15:10:21;;;;;;;1.67;0.63;;;;;;;;;;20995738;28;20127;-70
2023/05/08 15:20:22;;;;;;;3.95;0.57;;;;;;;;;;21010344;28;20083;-69
2023/05/08 15:30:24;;;;;;;1.35;0.70;;;;;;;;;;21010291;28;20170;-70
2023/05/08 15:40:25;;;;;;;0.98;0.80;;;;;;;;;;21009696;28;20095;-70
2023/05/08 15:50:26;;;;;;;1.70;0.68;;;;;;;;;;21008695;28;20051;-60
2023/05/08 16:00:29;;;;;;;3.08;1.30;;;;;;;;;;21000563;28;20110;-62
2023/05/08 16:10:30;;;;;;;3.45;0.95;;;;;;;;;;21005269;28;20080;-61
2023/05/08 16:20:32;;;;;;;2.50;0.73;;;;;;;;;;21005819;28;20041;-61
2023/05/08 16:30:33;;;;;;;2.35;1.02;;;;;;;;;;21001942;28;20196;-61
2023/05/08 16:40:34;;;;;;;2.42;0.85;;;;;;;;;;21000025;28;20048;-68
2023/05/08 16:50:35;;;;;;;3.90;0.43;;;;;;;;;;20996456;28;20119;-62
2023/05/08 17:00:37;;;;;;;1.70;0.85;;;;;;;;;;20997411;28;20386;-65
2023/05/08 17:10:40;;;;;;;2.35;0.80;;;;;;;;;;20990209;28;20386;-64
2023/05/08 17:20:42;;;;;;;1.75;0.90;;;;;;;;;;20994257;28;20062;-60
2023/05/08 17:30:43;;;;;;;5.20;0.90;;;;;;;;;;20991726;28;20094;-65
2023/05/08 17:40:44;;;;;;;2.92;0.70;;;;;;;;;;20987296;28;20040;-61
2023/05/08 17:50:45;;;;;;;4.10;0.90;;;;;;;;;;20989551;28;20048;-60
2023/05/08 18:00:46;;;;;;;4.60;2.45;;;;;;;;;;20994836;28;20064;-62
2023/05/08 18:10:49;;;;;;;2.53;1.35;;;;;;;;;;20994525;28;20048;-63
2023/05/08 18:20:50;;;;;;;1.73;0.90;;;;;;;;;;20984696;28;20052;-61
2023/05/08 18:30:51;;;;;;;4.35;1.23;;;;;;;;;;20990365;28;20154;-64
2023/05/08 18:40:52;;;;;;;6.88;2.80;;;;;;;;;;20993114;28;20044;-61
2023/05/08 18:50:57;;;;;;;11.20;6.13;;;;;;;;;;21002802;28;20477;-66
2023/05/08 19:00:58;;;;;;;2.67;0.80;;;;;;;;;;20968160;28;20044;-65
2023/05/08 19:10:59;;;;;;;3.55;1.30;;;;;;;;;;20999571;28;20033;-65
2023/05/08 19:21:00;;;;;;;2.25;1.30;;;;;;;;;;20993883;28;20087;-68
2023/05/08 19:31:02;;;;;;;2.38;1.00;;;;;;;;;;20989677;28;20064;-63
2023/05/08 19:41:03;;;;;;;4.38;1.13;;;;;;;;;;20985596;28;20070;-60
2023/05/08 19:51:08;;;;;;;3.85;1.70;;;;;;;;;;21002960;28;20055;-67
2023/05/08 20:01:09;;;;;;;4.55;1.70;;;;;;;;;;21000265;28;20059;-66
2023/05/08 20:11:10;;;;;;;4.35;1.73;;;;;;;;;;20999694;28;20044;-67
2023/05/08 20:21:11;;;;;;;4.22;2.30;;;;;;;;;;21005796;28;20045;-67
2023/05/08 20:31:12;;;;;;;6.22;2.15;;;;;;;;;;21004831;28;20406;-66
2023/05/08 20:41:14;;;;;;;5.93;2.33;;;;;;;;;;21004891;28;20378;-67
2023/05/08 20:51:15;;;;;;;6.55;4.07;;;;;;;;;;21003606;28;20071;-67
2023/05/08 21:01:16;;;;;;;8.60;4.30;;;;;;;;;;21001291;28;20114;-66
2023/05/08 21:11:17;;;;;;;7.38;3.60;;;;;;;;;;21001927;28;20440;-67
2023/05/08 21:21:18;;;;;;;5.10;2.13;;;;;;;;;;21001082;28;20056;-68
2023/05/08 21:31:20;;;;;;;3.47;1.90;;;;;;;;;;21000534;28;20520;-66
2023/05/08 21:41:21;;;;;;;3.03;1.23;;;;;;;;;;20999603;28;20104;-66
2023/05/08 21:51:22;;;;;;;4.88;1.90;;;;;;;;;;20998868;28;20159;-67
2023/05/08 22:01:23;;;;;;;7.40;2.17;;;;;;;;;;20998266;28;20056;-67
2023/05/08 22:11:25;;;;;;;4.10;1.50;;;;;;;;;;20996768;28;20089;-67
2023/05/08 22:21:28;;;;;;;5.07;1.63;;;;;;;;;;20996702;28;20048;-66
2023/05/08 22:31:30;;;;;;;6.78;2.25;;;;;;;;;;20997200;28;20124;-67
2023/05/08 22:41:31;;;;;;;14.00;7.95;;;;;;;;;;20997019;28;20049;-66
2023/05/08 22:51:32;;;;;;;7.70;4.18;;;;;;;;;;20995558;28;20074;-67
2023/05/08 23:01:33;;;;;;;4.90;1.90;;;;;;;;;;20996304;28;20068;-66
2023/05/08 23:11:34;;;;;;;1.52;0.93;;;;;;;;;;20995385;28;20048;-66
2023/05/08 23:21:35;;;;;;;3.45;1.50;;;;;;;;;;20994656;28;20107;-66
2023/05/08 23:31:36;;;;;;;6.25;3.40;;;;;;;;;;20993729;28;20124;-67
2023/05/08 23:41:38;;;;;;;3.17;1.42;;;;;;;;;;21008154;28;20044;-66
2023/05/08 23:51:39;;;;;;;2.25;0.73;;;;;;;;;;21008903;28;20089;-66
